• Join FlightAware (Why Join?)
  • Login
  • US Flag 
11:44PM EDT


 

Airport Tracker/Info


-or-


 

Live Flight TrackerFlight Track Log ✈ KLM644 ✈ 05-May-2012 ✈ KJFK - EHAM / AMS

Flight Track Log - Related Links

Times and Time Zones

All times are in EDT time to prevent confusion due to time zone crossing. See the KLM644 flight status page for this flight to view local times or setup timezone preferences in your user account.

Time Position Orientation Groundspeed Altitude Reporting Facility
EDT Latitude Longitude Course Direction KTS MPH feet Rate Location/Type
11:04PM 42.2103 -71.5025 231° Southwest  Level FlightAware Approximate
11:05PM 42.2789 -71.3723 231° Southwest  Level FlightAware Approximate
11:06PM 42.3474 -71.2419 231° Southwest  Level FlightAware Approximate
11:07PM 42.4156 -71.1111 232° Southwest  Level FlightAware Approximate
11:08PM 42.4838 -70.9801 232° Southwest  Level FlightAware Approximate
11:09PM 42.5518 -70.8488 232° Southwest  Level FlightAware Approximate
11:10PM 42.6685 -70.8640 230° Southwest  Level FlightAware Approximate
11:11PM 42.7445 -70.7413 230° Southwest  Level FlightAware Approximate
11:13PM 41.0217 -73.4149 30° Northeast 373 429 13,000  Level FlightAware ADS-B
11:13PM 41.0775 -73.3725 30° Northeast 409 471 14,600 2,820 Climbing FlightAware ADS-B
11:14PM 41.1445 -73.3201 29° Northeast 412 474 16,500 2,400 Climbing FlightAware ADS-B
11:15PM 41.2669 -73.2281 22° Northeast 410 472 19,100 2,400 Climbing FlightAware ADS-B
11:15PM 41.3194 -73.2000 24° Northeast 391 450 20,600 2,400 Climbing FlightAware ADS-B
11:16PM 41.3708 -73.1690 46° Northeast 384 442 21,600 1,500 Climbing FlightAware ADS-B
11:17PM 41.4303 -73.0881 51° Northeast 397 457 22,600 60 Climbing FlightAware ADS-B
11:24PM 41.9324 -72.1474 52° Northeast  Level FlightAware Approximate
11:25PM 42.0006 -72.0174 52° Northeast  Level FlightAware Approximate
11:26PM 42.0686 -71.8872 52° Northeast  Level FlightAware Approximate
11:27PM 42.1365 -71.7566 52° Northeast  Level FlightAware Approximate
11:28PM 42.2042 -71.6257 52° Northeast  Level FlightAware Approximate
11:29PM 42.2718 -71.4946 52° Northeast  Level FlightAware Approximate
11:30PM 42.3392 -71.3632 52° Northeast  Level FlightAware Approximate
11:31PM 42.4065 -71.2315 52° Northeast  Level FlightAware Approximate
11:32PM 42.4736 -71.0996 52° Northeast  Level FlightAware Approximate
11:33PM 42.5406 -70.9673 52° Northeast  Level FlightAware Approximate
11:34PM 42.6074 -70.8348 52° Northeast  Level FlightAware Approximate
11:35PM 42.6741 -70.7020 52° Northeast  Level FlightAware Approximate
11:36PM 42.7406 -70.5688 52° Northeast  Level FlightAware Approximate
11:37PM 42.8070 -70.4355 52° Northeast  Level FlightAware Approximate
11:38PM 42.8781 -70.3065 52° Northeast  Level FlightAware Approximate
11:39PM 42.9490 -70.1773 53° Northeast  Level FlightAware Approximate
11:40PM 43.0198 -70.0477 53° Northeast  Level FlightAware Approximate
11:41PM 43.0904 -69.9179 53° Northeast  Level FlightAware Approximate
11:42PM 43.1609 -69.7877 53° Northeast  Level FlightAware Approximate
11:43PM 43.2313 -69.6573 53° Northeast  Level FlightAware Approximate
11:44PM 43.3015 -69.5265 53° Northeast  Level FlightAware Approximate
11:45PM 43.3715 -69.3955 53° Northeast  Level FlightAware Approximate
11:46PM 43.4414 -69.2642 53° Northeast  Level FlightAware Approximate
11:47PM 43.5112 -69.1325 53° Northeast  Level FlightAware Approximate
11:48PM 43.5808 -69.0005 53° Northeast  Level FlightAware Approximate
11:49PM 43.6502 -68.8683 53° Northeast  Level FlightAware Approximate
11:50PM 43.7254 -68.7244 53° Northeast  Level FlightAware Approximate
11:51PM 43.8004 -68.5802 54° Northeast  Level FlightAware Approximate
11:52PM 43.8753 -68.4356 54° Northeast  Level FlightAware Approximate
11:53PM 43.9499 -68.2906 54° Northeast  Level FlightAware Approximate
11:54PM 44.0243 -68.1453 54° Northeast  Level FlightAware Approximate
11:55PM 44.0986 -67.9996 54° Northeast  Level FlightAware Approximate
11:56PM 44.1727 -67.8536 54° Northeast  Level FlightAware Approximate
11:57PM 44.2466 -67.7071 54° Northeast  Level FlightAware Approximate
11:58PM 44.3203 -67.5603 54° Northeast  Level FlightAware Approximate
11:59PM 44.3938 -67.4132 54° Northeast  Level FlightAware Approximate
12:00AM 44.4672 -67.2657 54° Northeast  Level FlightAware Approximate
12:01AM 44.5403 -67.1178 55° Northeast  Level FlightAware Approximate
12:02AM 44.6161 -66.9723 55° Northeast  Level FlightAware Approximate
12:03AM 44.6916 -66.8264 55° Northeast  Level FlightAware Approximate
12:04AM 44.7670 -66.6802 55° Northeast  Level FlightAware Approximate
12:05AM 44.8422 -66.5336 55° Northeast  Level FlightAware Approximate
12:06AM 44.9172 -66.3866 55° Northeast  Level FlightAware Approximate
12:07AM 44.9920 -66.2392 55° Northeast  Level FlightAware Approximate
12:08AM 45.0666 -66.0914 55° Northeast  Level FlightAware Approximate
12:09AM 45.1411 -65.9432 55° Northeast  Level FlightAware Approximate
12:10AM 45.2153 -65.7947 56° Northeast  Level FlightAware Approximate
12:11AM 45.2893 -65.6457 56° Northeast  Level FlightAware Approximate
12:12AM 45.3632 -65.4964 56° Northeast  Level FlightAware Approximate
12:13AM 45.4369 -65.3467 56° Northeast  Level FlightAware Approximate
12:14AM 45.5103 -65.1966 56° Northeast  Level FlightAware Approximate
12:15AM 45.5836 -65.0461 56° Northeast  Level FlightAware Approximate
12:16AM 45.6567 -64.8952 56° Northeast  Level FlightAware Approximate
12:17AM 45.7295 -64.7439 56° Northeast  Level FlightAware Approximate
12:18AM 45.8022 -64.5922 56° Northeast  Level FlightAware Approximate
12:19AM 45.8746 -64.4401 57° Northeast  Level FlightAware Approximate
12:20AM 45.9469 -64.2877 57° Northeast  Level FlightAware Approximate
12:21AM 46.0190 -64.1348 57° Northeast  Level FlightAware Approximate
12:22AM 46.0908 -63.9815 57° Northeast  Level FlightAware Approximate
12:23AM 46.1625 -63.8279 57° Northeast  Level FlightAware Approximate
12:24AM 46.2339 -63.6738 57° Northeast  Level FlightAware Approximate
12:25AM 46.3052 -63.5193 57° Northeast  Level FlightAware Approximate
12:26AM 46.3762 -63.3644 57° Northeast  Level FlightAware Approximate
12:27AM 46.4470 -63.2092 58° Northeast  Level FlightAware Approximate
12:28AM 46.5176 -63.0535 58° Northeast  Level FlightAware Approximate
12:29AM 46.5880 -62.8974 58° Northeast  Level FlightAware Approximate
12:30AM 46.6590 -62.7416 58° Northeast  Level FlightAware Approximate
12:31AM 46.7297 -62.5855 58° Northeast  Level FlightAware Approximate
12:32AM 46.8002 -62.4289 58° Northeast  Level FlightAware Approximate
12:33AM 46.8705 -62.2719 58° Northeast  Level FlightAware Approximate
12:34AM 46.9406 -62.1145 58° Northeast  Level FlightAware Approximate
12:35AM 47.0104 -61.9566 59° Northeast  Level FlightAware Approximate
12:36AM 47.0801 -61.7984 59° Northeast  Level FlightAware Approximate
12:37AM 47.1495 -61.6398 59° Northeast  Level FlightAware Approximate
12:38AM 47.2187 -61.4807 59° Northeast  Level FlightAware Approximate
12:39AM 47.2877 -61.3212 59° Northeast  Level FlightAware Approximate
12:40AM 47.2900 -61.1350 59° Northeast  Level FlightAware Approximate
12:41AM 47.3587 -60.9751 59° Northeast  Level FlightAware Approximate
12:42AM 47.4272 -60.8147 59° Northeast  Level FlightAware Approximate
12:43AM 47.4954 -60.6539 59° Northeast  Level FlightAware Approximate
12:44AM 47.5634 -60.4927 59° Northeast  Level FlightAware Approximate
12:45AM 47.6313 -60.3311 60° Northeast  Level FlightAware Approximate
12:46AM 47.6988 -60.1691 60° Northeast  Level FlightAware Approximate
12:47AM 47.7662 -60.0066 60° Northeast  Level FlightAware Approximate
12:48AM 47.8333 -59.8437 60° Northeast  Level FlightAware Approximate
12:49AM 47.9002 -59.6804 60° Northeast  Level FlightAware Approximate
12:50AM 47.9669 -59.5167 60° Northeast  Level FlightAware Approximate
12:51AM 48.0333 -59.3526 60° Northeast  Level FlightAware Approximate
12:52AM 48.0995 -59.1880 61° Northeast  Level FlightAware Approximate
12:53AM 48.1654 -59.0230 61° Northeast  Level FlightAware Approximate
12:54AM 48.2312 -58.8576 61° Northeast  Level FlightAware Approximate
12:55AM 48.2966 -58.6917 61° Northeast  Level FlightAware Approximate
12:56AM 48.3619 -58.5255 61° Northeast  Level FlightAware Approximate
12:57AM 48.4269 -58.3588 61° Northeast  Level FlightAware Approximate
12:58AM 48.4916 -58.1917 62° Northeast  Level FlightAware Approximate
12:59AM 48.5562 -58.0241 62° Northeast  Level FlightAware Approximate
01:00AM 48.6204 -57.8561 62° Northeast  Level FlightAware Approximate
01:01AM 48.6845 -57.6877 62° Northeast  Level FlightAware Approximate
01:02AM 48.7474 -57.5182 62° Northeast  Level FlightAware Approximate
01:03AM 48.8101 -57.3482 62° Northeast  Level FlightAware Approximate
01:04AM 48.8726 -57.1778 63° Northeast  Level FlightAware Approximate
01:05AM 48.9348 -57.0070 63° Northeast  Level FlightAware Approximate
01:06AM 48.9967 -56.8357 63° Northeast  Level FlightAware Approximate
01:07AM 49.0584 -56.6641 63° Northeast  Level FlightAware Approximate
01:08AM 49.1198 -56.4920 63° Northeast  Level FlightAware Approximate
01:09AM 49.1810 -56.3195 63° Northeast  Level FlightAware Approximate
01:10AM 49.2419 -56.1465 64° Northeast  Level FlightAware Approximate
01:11AM 49.3026 -55.9731 64° Northeast  Level FlightAware Approximate
01:12AM 49.3630 -55.7993 64° Northeast  Level FlightAware Approximate
01:13AM 49.4231 -55.6251 64° Northeast  Level FlightAware Approximate
01:14AM 49.4830 -55.4504 64° Northeast  Level FlightAware Approximate
01:15AM 49.5426 -55.2754 65° Northeast  Level FlightAware Approximate
01:16AM 49.6020 -55.0998 65° Northeast  Level FlightAware Approximate
01:17AM 49.6611 -54.9239 65° Northeast  Level FlightAware Approximate
01:18AM 49.7185 -54.7465 65° Northeast  Level FlightAware Approximate
01:19AM 49.7757 -54.5687 65° Northeast  Level FlightAware Approximate
01:20AM 49.8327 -54.3904 66° East  Level FlightAware Approximate
01:21AM 49.8894 -54.2118 66° East  Level FlightAware Approximate
01:22AM 49.9458 -54.0327 66° East  Level FlightAware Approximate
01:23AM 50.0019 -53.8532 66° East  Level FlightAware Approximate
01:24AM 50.0577 -53.6732 67° East  Level FlightAware Approximate
01:25AM 50.1133 -53.4929 67° East  Level FlightAware Approximate
01:26AM 50.1685 -53.3121 67° East  Level FlightAware Approximate
01:27AM 50.2235 -53.1310 67° East  Level FlightAware Approximate
01:28AM 50.2783 -52.9494 68° East  Level FlightAware Approximate
01:29AM 50.3327 -52.7674 68° East  Level FlightAware Approximate
01:30AM 50.3868 -52.5849 68° East  Level FlightAware Approximate
01:31AM 50.4407 -52.4021 69° East  Level FlightAware Approximate
01:32AM 51.0000 -50.0000 68° East 475 547 35,000  Level ETMS Enhanced Traffic Management System
02:22AM 53.0000 -40.0000 76° East 471 542 35,000  Level ETMS Enhanced Traffic Management System
03:09AM 54.0000 -30.0000 86° East 491 565 35,000  Level ETMS Enhanced Traffic Management System
03:09AM 54.0672 -29.2383 89° East  Level FlightAware Approximate
03:10AM 54.0845 -29.0215 91° East  Level FlightAware Approximate
03:11AM 54.1014 -28.8045 92° East  Level FlightAware Approximate
03:12AM 54.1180 -28.5874 95° East  Level FlightAware Approximate
03:16AM 54.0716 -27.7861 88° East 491 565 35,000  Level FlightAware Transoceanic
03:17AM 54.0768 -27.5535 88° East 491 565 35,000  Level FlightAware Transoceanic
03:18AM 54.0815 -27.3209 88° East 491 565 35,000  Level FlightAware Transoceanic
03:19AM 54.0857 -27.0881 88° East 491 565 35,000  Level FlightAware Transoceanic
03:20AM 54.0895 -26.8554 88° East 491 565 35,000  Level FlightAware Transoceanic
03:21AM 54.0929 -26.6226 89° East 491 565 35,000  Level FlightAware Transoceanic
03:22AM 54.0958 -26.3897 89° East 491 565 35,000  Level FlightAware Transoceanic
03:23AM 54.0983 -26.1569 89° East 491 565 35,000  Level FlightAware Transoceanic
03:24AM 54.1003 -25.9240 89° East 491 565 35,000  Level FlightAware Transoceanic
03:25AM 54.1018 -25.6910 89° East 491 565 35,000  Level FlightAware Transoceanic
03:26AM 54.1029 -25.4581 90° East 491 565 35,000  Level FlightAware Transoceanic
03:27AM 54.1036 -25.2252 90° East 491 565 35,000  Level FlightAware Transoceanic
03:28AM 54.1038 -24.9922 90° East 491 565 35,000  Level FlightAware Transoceanic
03:29AM 54.1036 -24.7593 90° East 491 565 35,000  Level FlightAware Transoceanic
03:30AM 54.1029 -24.5264 90° East 491 565 35,000  Level FlightAware Transoceanic
03:31AM 54.1017 -24.2934 91° East 491 565 35,000  Level FlightAware Transoceanic
03:32AM 54.1002 -24.0605 91° East 491 565 35,000  Level FlightAware Transoceanic
03:33AM 54.0981 -23.8276 91° East 491 565 35,000  Level FlightAware Transoceanic
03:34AM 54.0956 -23.5947 91° East 491 565 35,000  Level FlightAware Transoceanic
03:35AM 54.0927 -23.3619 91° East 491 565 35,000  Level FlightAware Transoceanic
03:36AM 54.0893 -23.1291 92° East 491 565 35,000  Level FlightAware Transoceanic
03:37AM 54.0855 -22.8963 92° East 491 565 35,000  Level FlightAware Transoceanic
03:38AM 54.0812 -22.6636 92° East 491 565 35,000  Level FlightAware Transoceanic
03:39AM 54.0765 -22.4310 92° East 491 565 35,000  Level FlightAware Transoceanic
03:40AM 54.0713 -22.1984 92° East 491 565 35,000  Level FlightAware Transoceanic
03:41AM 54.0656 -21.9658 92° East 491 565 35,000  Level FlightAware Transoceanic
03:42AM 54.0596 -21.7333 93° East 491 565 35,000  Level FlightAware Transoceanic
03:43AM 54.0530 -21.5009 93° East 491 565 35,000  Level FlightAware Transoceanic
03:44AM 54.0460 -21.2686 93° East 491 565 35,000  Level FlightAware Transoceanic
03:45AM 54.0386 -21.0363 93° East 491 565 35,000  Level FlightAware Transoceanic
03:46AM 54.0308 -20.8041 93° East 491 565 35,000  Level FlightAware Transoceanic
03:47AM 54.0224 -20.5721 94° East 491 565 35,000  Level FlightAware Transoceanic
03:48AM 54.0137 -20.3401 94° East 491 565 35,000  Level FlightAware Transoceanic
03:49AM 54.0045 -20.1082 87° East 491 565 35,000  Level FlightAware Transoceanic
03:50AM 54.0095 -19.8899 87° East  Level FlightAware Approximate
03:51AM 54.0142 -19.6716 87° East  Level FlightAware Approximate
03:52AM 54.0184 -19.4533 87° East  Level FlightAware Approximate
03:53AM 54.0223 -19.2349 87° East  Level FlightAware Approximate
03:54AM 54.0258 -19.0165 87° East  Level FlightAware Approximate
03:55AM 54.0289 -18.7980 88° East  Level FlightAware Approximate
03:56AM 54.0316 -18.5795 88° East  Level FlightAware Approximate
03:57AM 54.0339 -18.3610 88° East  Level FlightAware Approximate
03:58AM 54.0358 -18.1425 88° East  Level FlightAware Approximate
03:59AM 54.0373 -17.9239 88° East  Level FlightAware Approximate
04:00AM 54.0383 -17.7053 88° East  Level FlightAware Approximate
04:01AM 54.0391 -17.4867 89° East  Level FlightAware Approximate
04:02AM 54.0394 -17.2682 89° East  Level FlightAware Approximate
04:03AM 54.0393 -17.0496 89° East  Level FlightAware Approximate
04:04AM 54.0388 -16.8310 89° East  Level FlightAware Approximate
04:05AM 54.0379 -16.6124 89° East  Level FlightAware Approximate
04:06AM 54.0366 -16.3939 89° East  Level FlightAware Approximate
04:07AM 54.0350 -16.1753 90° East  Level FlightAware Approximate
04:08AM 54.0329 -15.9568 90° East  Level FlightAware Approximate
04:09AM 54.0304 -15.7383 90° East  Level FlightAware Approximate
04:10AM 54.0275 -15.5198 90° East  Level FlightAware Approximate
04:11AM 54.0243 -15.3013 90° East  Level FlightAware Approximate
04:12AM 54.0206 -15.0829 90° East  Level FlightAware Approximate
04:13AM 54.0166 -14.8645 90° East  Level FlightAware Approximate
04:14AM 54.0121 -14.6462 91° East  Level FlightAware Approximate
04:15AM 54.0073 -14.4279 91° East  Level FlightAware Approximate
04:16AM 54.0020 -14.2097 91° East  Level FlightAware Approximate
04:17AM 53.9964 -13.9916 91° East  Level FlightAware Approximate
04:18AM 53.9904 -13.7735 91° East  Level FlightAware Approximate
04:19AM 53.9840 -13.5554 91° East  Level FlightAware Approximate
04:20AM 53.9772 -13.3375 91° East  Level FlightAware Approximate
04:21AM 53.9700 -13.1211 92° East  Level FlightAware Approximate
04:22AM 53.9625 -12.9049 92° East  Level FlightAware Approximate
04:23AM 53.9545 -12.6887 92° East  Level FlightAware Approximate
04:24AM 53.9462 -12.4726 92° East  Level FlightAware Approximate
04:25AM 53.9375 -12.2567 92° East  Level FlightAware Approximate
04:26AM 53.9319 -12.0404 92° East  Level FlightAware Approximate
04:27AM 53.9259 -11.8242 93° East  Level FlightAware Approximate
04:28AM 53.9194 -11.6081 93° East  Level FlightAware Approximate
04:29AM 53.9127 -11.3920 93° East  Level FlightAware Approximate
04:30AM 53.9055 -11.1761 93° East  Level FlightAware Approximate
04:31AM 53.8979 -10.9602 93° East  Level FlightAware Approximate
04:32AM 53.8899 -10.7444 93° East  Level FlightAware Approximate
04:33AM 53.8816 -10.5286 94° East  Level FlightAware Approximate
04:34AM 53.8729 -10.3130 94° East  Level FlightAware Approximate
04:35AM 53.8643 -10.0973 94° East  Level FlightAware Approximate
04:36AM 53.8554 -9.8818 94° East  Level FlightAware Approximate
04:37AM 53.8460 -9.6664 94° East  Level FlightAware Approximate
04:38AM 53.8363 -9.4510 94° East  Level FlightAware Approximate
04:39AM 53.8262 -9.2358 95° East  Level FlightAware Approximate
04:40AM 53.8158 -9.0206 95° East  Level FlightAware Approximate
04:41AM 53.8049 -8.8056 95° East  Level FlightAware Approximate
04:42AM 53.7936 -8.5907 95° East  Level FlightAware Approximate
04:43AM 53.7820 -8.3759 95° East  Level FlightAware Approximate
04:44AM 53.7700 -8.1612 95° East  Level FlightAware Approximate
04:45AM 53.7576 -7.9466 96° East  Level FlightAware Approximate
04:46AM 53.7448 -7.7322 96° East  Level FlightAware Approximate
04:47AM 53.7316 -7.5179 96° East  Level FlightAware Approximate
04:48AM 53.7181 -7.3038 96° East  Level FlightAware Approximate
04:49AM 53.7041 -7.0897 96° East  Level FlightAware Approximate
04:50AM 53.6898 -6.8759 96° East  Level FlightAware Approximate
04:51AM 53.6751 -6.6622 97° East  Level FlightAware Approximate
04:52AM 53.6601 -6.4486 97° East  Level FlightAware Approximate
04:53AM 53.6446 -6.2352 97° East  Level FlightAware Approximate
04:54AM 53.6288 -6.0219 97° East  Level FlightAware Approximate
04:55AM 53.6126 -5.8088 97° East  Level FlightAware Approximate
04:56AM 53.5960 -5.5959 97° East  Level FlightAware Approximate
04:57AM 53.5790 -5.3831 97° East  Level FlightAware Approximate
04:59AM 53.4145 -3.4615 94° East 520 598 37,000  Level FlightAware ADS-B
04:59AM 53.4085 -3.3251 94° East 520 598 37,000  Level FlightAware ADS-B
05:00AM 53.4020 -3.1768 94° East 520 598 37,000  Level FlightAware ADS-B
05:00AM 53.3961 -3.0486 94° East 519 597 37,000  Level FlightAware ADS-B
05:01AM 53.3879 -2.8727 95° East 519 597 37,000  Level FlightAware ADS-B
05:02AM 53.3810 -2.7331 95° East 519 597 37,000  Level FlightAware ADS-B
05:02AM 53.3749 -2.6093 95° East 518 596 37,000  Level FlightAware ADS-B
05:03AM 53.3648 -2.4103 98° East 518 596 37,000  Level FlightAware ADS-B
05:04AM 53.3417 -2.1258 100° East 517 595 37,000  Level FlightAware ADS-B
05:05AM 53.3361 -2.0708 99° East 516 594 37,000  Level FlightAware ADS-B
05:05AM 53.3241 -1.9486 99° East 517 595 37,000  Level FlightAware ADS-B
05:06AM 53.3113 -1.8153 100° East 516 594 37,000  Level FlightAware ADS-B
05:06AM 53.2977 -1.6854 100° East 517 595 37,000  Level FlightAware ADS-B
05:07AM 53.2846 -1.5638 100° East 518 596 37,000  Level FlightAware ADS-B
05:07AM 53.2709 -1.4380 101° East 518 596 37,000  Level FlightAware ADS-B
05:08AM 53.2578 -1.3204 101° East 519 597 37,000  Level FlightAware ADS-B
05:08AM 53.2446 -1.2028 100° East 518 596 37,000  Level FlightAware ADS-B
05:09AM 53.2291 -1.0616 101° East 518 596 37,000  Level FlightAware ADS-B
05:10AM 53.1919 -0.7336 101° East 516 594 37,000  Level FlightAware ADS-B
05:11AM 53.1776 -0.6131 101° East 514 592 37,000  Level FlightAware ADS-B
05:12AM 53.1569 -0.4344 101° East 515 593 37,000  Level FlightAware ADS-B
05:12AM 53.1427 -0.3142 101° East 515 593 37,000  Level FlightAware ADS-B
05:13AM 53.1274 -0.1864 102° East 515 593 37,000  Level FlightAware ADS-B
05:13AM 53.1211 -0.1360 101° East 514 592 37,000  Level FlightAware ADS-B
05:13AM 53.1053 -0.0044 101° East 514 592 37,000  Level FlightAware ADS-B
05:14AM 53.0874 0.1423 102° East 514 592 37,000  Level FlightAware ADS-B
05:15AM 53.0712 0.2740 102° East 516 594 37,000  Level FlightAware ADS-B
05:15AM 53.0563 0.3939 102° East 515 593 37,000  Level FlightAware ADS-B
05:16AM 53.0380 0.5367 102° East 514 592 37,000  Level FlightAware ADS-B
05:16AM 53.0225 0.6601 102° East 514 592 37,000  Level FlightAware ADS-B
05:17AM 53.0075 0.7758 102° East 513 590 37,000  Level FlightAware ADS-B
05:17AM 52.9926 0.8949 102° East 514 592 37,000  Level FlightAware ADS-B
05:18AM 52.9768 1.0143 101° East 514 592 37,000  Level FlightAware ADS-B
05:18AM 52.9629 1.1299 100° East 514 592 37,000  Level FlightAware ADS-B
05:19AM 52.9497 1.2497 101° East 511 588 37,000 -600 Level FlightAware ADS-B
05:19AM 52.9361 1.3682 101° East 509 586 36,400 -1,680 Descending FlightAware ADS-B
05:20AM 52.9225 1.4857 101° East 502 578 35,300 -2,400 Descending FlightAware ADS-B
05:20AM 52.9091 1.5982 110° East 497 572 34,000 -2,640 Descending FlightAware ADS-B
05:28AM 52.5769 3.0753 105° East  Level FlightAware Approximate
05:29AM 52.5440 3.2778 105° East  Level FlightAware Approximate
05:30AM 52.5108 3.4801 105° East  Level FlightAware Approximate
05:31AM 52.4772 3.6820 103° East  Level FlightAware Approximate
05:32AM 52.4475 3.8853 106° East  Level FlightAware Approximate
05:33AM 52.4121 4.0861 105° East  Level FlightAware Approximate
05:34AM 52.3800 4.2835 103° East  Level FlightAware Approximate
05:35AM 52.3519 4.4852 110° East  Level FlightAware Approximate
05:36AM 52.3089 4.6790 90° East  Level FlightAware Approximate
05:37AM 52.3081 4.8864 270° West  Level Estimated
05:38AM 52.3089 4.6790 90° East  Level Estimated
05:39AM 52.3081 4.8864 265° West  Level Estimated
05:40AM 52.3000 4.7500 45° Northeast  Level FlightAware Approximate
05:41AM 52.3902 4.8959 225° Southwest  Level Estimated
05:42AM 52.3000 4.7500 45° Northeast  Level FlightAware Approximate
05:43AM 52.3902 4.8959 225° Southwest  Level Estimated
05:44AM 52.3000 4.7500 225° Southwest  Level FlightAware Approximate